Time;durP1;ratioP1;P1;durP2;ratioP2;P2;SDS_P1;SDS_P2;PMS_P1;PMS_P2;Temp;Humidity;BMP_temperature;BMP_pressure;BME280_temperature;BME280_humidity;BME280_pressure;Samples;Min_cycle;Max_cycle;Signal;HPM_P1;HPM_P2
2023/06/23 00:00:09;;;;;;;12.02;8.02;;;;;;;21.52;nan;9158.84;5092568;28;20517;-61
2023/06/23 00:02:35;;;;;;;14.75;8.85;;;;;;;21.71;nan;8836.13;5091701;28;20719;-61
2023/06/23 00:05:01;;;;;;;19.65;8.80;;;;;;;21.53;nan;8831.50;5092095;28;20177;-61
2023/06/23 00:07:26;;;;;;;16.48;9.10;;;;;;;21.73;nan;10147.84;5092535;28;20180;-60
2023/06/23 00:09:51;;;;;;;13.55;8.80;;;;;;;21.75;nan;9165.03;5092414;28;20192;-61
2023/06/23 00:12:17;;;;;;;15.18;8.55;;;;;;;21.47;nan;9812.91;5091865;28;20530;-61
2023/06/23 00:14:43;;;;;;;15.23;8.20;;;;;;;21.50;nan;10469.16;5092126;28;20276;-61
2023/06/23 00:17:08;;;;;;;15.27;8.68;;;;;;;21.81;nan;12117.94;5091975;28;20203;-61
2023/06/23 00:19:33;;;;;;;13.43;7.80;;;;;;;21.64;nan;12440.53;5091621;28;20244;-61
2023/06/23 00:21:59;;;;;;;17.42;8.80;;;;;;;21.80;nan;12117.59;5091918;28;20173;-61
2023/06/23 00:24:24;;;;;;;12.75;8.52;;;;;;;21.74;nan;10475.81;5092093;28;20671;-60
2023/06/23 00:26:50;;;;;;;16.63;9.73;;;;;;;;;;5090707;28;20169;-60
2023/06/23 00:29:16;;;;;;;17.50;9.68;;;;;;;21.45;nan;7846.91;5090614;28;20261;-60
2023/06/23 00:31:41;;;;;;;13.13;8.07;;;;;;;21.69;nan;10474.38;5092217;28;20169;-60
2023/06/23 00:34:07;;;;;;;15.18;8.57;;;;;;;21.73;nan;14740.63;5092382;28;20193;-61
2023/06/23 00:36:32;;;;;;;15.32;8.85;;;;;;;20.91;nan;14383.47;5092397;28;20165;-60
2023/06/23 00:38:58;;;;;;;14.13;8.00;;;;;;;21.52;nan;12764.78;5092229;28;20184;-61
2023/06/23 00:41:23;;;;;;;14.25;8.40;;;;;;;21.31;nan;11774.31;5092143;28;20161;-60
2023/06/23 00:43:49;;;;;;;15.25;8.75;;;;;;;21.51;nan;12108.56;5091816;28;20177;-60
2023/06/23 00:46:21;;;;;;;13.75;8.65;;;;;;;21.45;nan;12106.53;5091683;28;20174;-61
2023/06/23 00:48:48;;;;;;;12.73;7.97;;;;;;;21.58;nan;12766.75;5091972;28;20177;-61
2023/06/23 00:51:15;;;;;;;15.80;8.52;;;;;;;21.49;nan;12763.81;5090252;28;20212;-61
2023/06/23 00:53:45;;;;;;;14.80;8.45;;;;;;;21.50;nan;12108.25;5094351;28;20197;-61
2023/06/23 00:56:11;;;;;;;13.18;8.38;;;;;;;21.49;nan;11779.91;5095560;28;20584;-60
2023/06/23 00:58:37;;;;;;;14.02;8.50;;;;;;;21.49;nan;11779.91;5095249;28;20230;-60
2023/06/23 01:01:03;;;;;;;14.15;8.73;;;;;;;21.40;nan;11121.53;5094899;28;20169;-61
2023/06/23 01:03:29;;;;;;;13.23;8.35;;;;;;;21.20;nan;11115.53;5095313;28;20161;-61
2023/06/23 01:05:57;;;;;;;16.70;9.23;;;;;;;21.16;nan;10459.28;5095370;28;20165;-61
2023/06/23 01:08:36;;;;;;;16.17;8.43;;;;;;;21.42;nan;11122.13;5095157;28;20208;-61
2023/06/23 01:11:16;;;;;;;13.52;8.15;;;;;;;21.49;nan;12435.69;5095172;28;20169;-63
2023/06/23 01:13:49;;;;;;;13.18;8.30;;;;;;;21.40;nan;10466.09;5094642;28;20189;-61
2023/06/23 01:16:21;;;;;;;15.15;8.43;;;;;;;21.48;nan;9813.03;5095189;28;20161;-60
2023/06/23 01:18:46;;;;;;;14.80;8.32;;;;;;;21.65;nan;12112.84;5094424;28;20234;-60
2023/06/23 01:21:18;;;;;;;17.00;9.32;;;;;;;21.60;nan;11783.47;5094837;28;20576;-61
2023/06/23 01:24:10;;;;;;;15.38;8.65;;;;;;;21.51;nan;10141.56;5094763;28;20652;-61
2023/06/23 01:27:08;;;;;;;15.07;7.75;;;;;;;21.15;nan;8494.28;5095402;28;20181;-60
2023/06/23 01:29:36;;;;;;;15.40;8.48;;;;;;;21.31;nan;7516.09;5093875;28;20257;-60
2023/06/23 01:32:11;;;;;;;12.95;8.32;;;;;;;21.23;nan;6859.72;5095082;28;20169;-61
2023/06/23 01:34:44;;;;;;;13.05;8.50;;;;;;;20.85;nan;4889.44;5094749;28;20580;-60
2023/06/23 01:37:14;;;;;;;17.90;9.13;;;;;;;21.12;nan;4240.88;5095311;28;20169;-60
2023/06/23 01:39:46;;;;;;;14.27;8.32;;;;;;;20.84;nan;3582.16;5095143;28;20169;-59
2023/06/23 01:42:16;;;;;;;14.95;9.02;;;;;;;20.97;nan;3911.16;5095084;28;20169;-60
2023/06/23 01:44:48;;;;;;;16.38;9.45;;;;;;;20.97;nan;3584.34;5094532;28;20169;-60
2023/06/23 01:47:21;;;;;;;17.13;9.23;;;;;;;21.08;nan;2279.31;5095061;28;20640;-60
2023/06/23 01:49:48;;;;;;;15.18;9.35;;;;;;;21.08;nan;1952.63;5094722;28;20201;-60
2023/06/23 01:52:15;;;;;;;15.80;9.25;;;;;;;20.75;nan;1621.19;5094724;28;20182;-60
2023/06/23 01:54:42;;;;;;;18.08;10.20;;;;;;;20.98;nan;644.84;5094202;28;20267;-60
2023/06/23 01:57:10;;;;;;;15.95;9.10;;;;;;;20.85;nan;-1640.94;5094859;28;20180;-60
2023/06/23 01:59:38;;;;;;;17.38;10.00;;;;;;;20.57;nan;-2621.50;5094530;28;20725;-60
2023/06/23 02:02:06;;;;;;;19.23;9.70;;;;;;;20.65;nan;-5879.16;5094053;28;20625;-60
2023/06/23 02:04:33;;;;;;;17.67;9.82;;;;;;;20.19;nan;-9132.84;5092503;28;20212;-60
2023/06/23 02:07:01;;;;;;;20.67;10.25;;;;;;;20.47;nan;-11084.56;5094654;28;20174;-61
2023/06/23 02:09:29;;;;;;;17.60;10.27;;;;;;;20.32;nan;-11733.53;5094256;28;20183;-60
2023/06/23 02:11:57;;;;;;;17.67;10.18;;;;;;;20.39;nan;-13033.56;5094137;28;20197;-61
2023/06/23 02:14:25;;;;;;;19.88;11.23;;;;;;;20.33;nan;-13357.72;5092998;28;20208;-60
2023/06/23 02:16:53;;;;;;;18.63;10.70;;;;;;;20.11;nan;-13680.25;5094593;28;20158;-60
2023/06/23 02:19:20;;;;;;;18.63;10.93;;;;;;;20.07;nan;-14328.88;5094819;28;20521;-60
2023/06/23 02:21:47;;;;;;;19.75;10.80;;;;;;;19.96;nan;-15300.91;5094078;28;20673;-61
2023/06/23 02:24:14;;;;;;;17.77;10.80;;;;;;;20.35;nan;-15630.44;5094396;28;20177;-60
2023/06/23 02:26:43;;;;;;;20.15;10.90;;;;;;;20.22;nan;-16277.59;5094041;28;20177;-60
2023/06/23 02:29:10;;;;;;;17.63;10.00;;;;;;;20.36;nan;-15630.63;5094116;28;20177;-60
2023/06/23 02:31:36;;;;;;;19.67;11.07;;;;;;;20.05;nan;-16599.41;5094235;28;20257;-60
2023/06/23 02:34:03;;;;;;;18.80;10.70;;;;;;;20.20;nan;-14655.00;5093603;28;20355;-61
2023/06/23 02:36:43;;;;;;;19.38;10.73;;;;;;;20.50;nan;-13359.44;5093896;28;20257;-61
2023/06/23 02:39:11;;;;;;;20.15;10.82;;;;;;;20.59;nan;-13685.16;5093484;28;20173;-59
2023/06/23 02:41:40;;;;;;;20.88;10.85;;;;;;;20.56;nan;-13035.16;5094194;28;20196;-60
2023/06/23 02:44:14;;;;;;;18.02;9.32;;;;;;;20.48;nan;-12709.47;5093570;28;20636;-60
2023/06/23 02:46:43;;;;;;;17.75;10.23;;;;;;;20.29;nan;-12383.06;5093691;28;20172;-60
2023/06/23 02:49:15;;;;;;;18.80;10.93;;;;;;;20.41;nan;-12384.03;5092868;28;20179;-59
2023/06/23 02:51:43;;;;;;;19.00;10.52;;;;;;;20.46;nan;-11084.50;5092258;28;20177;-60
2023/06/23 02:54:17;;;;;;;21.45;10.50;;;;;;;20.11;nan;-11732.00;5093297;28;20289;-61
2023/06/23 02:56:43;;;;;;;21.50;10.10;;;;;;;20.48;nan;-11409.63;5093668;28;20174;-61
2023/06/23 02:59:13;;;;;;;18.17;10.88;;;;;;;20.52;nan;-10759.78;5093454;28;20192;-61
2023/06/23 03:01:41;;;;;;;19.92;11.57;;;;;;;20.62;nan;-10435.13;5093621;28;20321;-61
2023/06/23 03:04:07;;;;;;;18.23;10.65;;;;;;;20.83;nan;-9785.53;5093095;28;20173;-60
2023/06/23 03:06:36;;;;;;;20.35;11.43;;;;;;;20.86;nan;-7832.75;5093441;28;20659;-60
2023/06/23 03:09:03;;;;;;;16.52;10.68;;;;;;;21.39;nan;-3594.28;5093005;28;20162;-61
2023/06/23 03:11:33;;;;;;;19.00;10.82;;;;;;;21.45;nan;977.63;5093234;28;20165;-61
2023/06/23 03:13:59;;;;;;;18.00;10.55;;;;;;;22.06;nan;8189.53;4614156;28;20209;-60
2023/06/23 03:16:27;;;;;;;19.13;9.63;;;;;;;22.31;nan;15089.94;4406631;28;20956;-62
2023/06/23 03:19:15;;;;;;;18.20;10.38;;;;;;;22.71;nan;26633.75;5052738;28;20648;-61
2023/06/23 03:21:43;;;;;;;19.10;9.65;;;;;;;23.22;nan;42916.91;5093266;28;20161;-60
2023/06/23 03:24:12;;;;;;;16.48;9.82;;;;;;;23.84;nan;50793.59;5092974;28;20624;-61
2023/06/23 03:26:41;;;;;;;18.48;10.13;;;;;;;24.43;nan;54170.31;5092993;28;20173;-61
2023/06/23 03:29:09;;;;;;;19.52;10.27;;;;;;;24.76;nan;56368.19;5092448;28;20564;-61
2023/06/23 03:31:39;;;;;;;16.38;9.65;;;;;;;25.15;nan;57740.31;5093167;28;20623;-60
2023/06/23 03:34:06;;;;;;;17.70;9.75;;;;;;;25.38;nan;58554.63;5093224;28;20230;-61
2023/06/23 03:36:35;;;;;;;15.82;8.73;;;;;;;25.74;nan;59429.38;5093024;28;20712;-61
2023/06/23 03:39:13;;;;;;;17.55;10.05;;;;;;;26.57;nan;60145.19;5092834;28;20207;-61
2023/06/23 03:41:41;;;;;;;15.35;9.23;;;;;;;27.12;nan;60777.69;5092273;28;20768;-61
2023/06/23 03:44:22;;;;;;;16.50;8.88;;;;;;;27.71;nan;61206.75;5092826;28;20170;-61
2023/06/23 03:46:54;;;;;;;14.02;9.05;;;;;;;28.37;nan;61637.72;5091367;28;20212;-61
2023/06/23 03:49:22;;;;;;;12.80;8.43;;;;;;;;;;5092301;28;20188;-61
2023/06/23 03:51:50;;;;;;;17.08;9.25;;;;;;;28.95;nan;62026.28;5092072;28;20666;-62
2023/06/23 03:54:17;;;;;;;17.48;8.77;;;;;;;29.64;nan;62767.91;5082883;28;20209;-61
2023/06/23 03:56:46;;;;;;;14.65;8.80;;;;;;;29.74;nan;62800.47;5082459;28;20239;-61
2023/06/23 03:59:13;;;;;;;15.88;9.18;;;;;;;30.00;nan;62916.16;5081503;28;20201;-60
2023/06/23 04:01:41;;;;;;;13.43;8.32;;;;;;;30.22;nan;62947.25;5082739;28;20224;-60
2023/06/23 04:04:09;;;;;;;17.08;9.50;;;;;;;30.42;nan;62969.66;5088540;28;20177;-59
2023/06/23 04:06:35;;;;;;;13.13;8.02;;;;;;;30.60;nan;63034.63;5089544;28;20245;-61
2023/06/23 04:09:02;;;;;;;14.65;8.80;;;;;;;30.96;nan;63136.19;5092499;28;20176;-61
2023/06/23 04:11:29;;;;;;;13.65;8.98;;;;;;;31.23;nan;63148.78;5085570;28;20272;-62
2023/06/23 04:13:59;;;;;;;14.10;8.48;;;;;;;31.49;nan;63223.63;5082545;28;20628;-62
2023/06/23 04:16:26;;;;;;;13.43;8.38;;;;;;;31.49;nan;63159.66;5081374;28;20633;-61
2023/06/23 04:18:53;;;;;;;13.30;8.27;;;;;;;31.06;nan;63198.47;5079752;28;20244;-61
2023/06/23 04:21:22;;;;;;;13.65;8.45;;;;;;;31.26;nan;63172.81;5076474;28;20177;-61
2023/06/23 04:23:49;;;;;;;15.18;9.00;;;;;;;31.34;nan;63295.63;5089953;28;20176;-60
2023/06/23 04:26:16;;;;;;;11.05;7.88;;;;;;;31.84;nan;63265.50;5091496;28;20164;-62
2023/06/23 04:28:43;;;;;;;15.27;8.45;;;;;;;32.01;nan;63367.66;5091234;28;20171;-61
2023/06/23 04:31:10;;;;;;;14.43;8.73;;;;;;;32.32;nan;63410.81;5091497;28;20168;-61
2023/06/23 04:33:36;;;;;;;13.10;9.10;;;;;;;32.54;nan;63409.19;5091005;28;20168;-60
2023/06/23 04:36:12;;;;;;;16.05;8.55;;;;;;;32.49;nan;63506.66;5091527;28;20637;-59
2023/06/23 04:38:42;;;;;;;13.18;8.65;;;;;;;32.72;nan;63512.06;5091708;28;20655;-61
2023/06/23 04:41:15;;;;;;;14.95;9.18;;;;;;;32.49;nan;63416.06;5091734;28;20168;-63
2023/06/23 04:43:43;;;;;;;14.43;8.45;;;;;;;32.78;nan;63479.28;5091558;28;20192;-61
2023/06/23 04:46:15;;;;;;;13.85;8.27;;;;;;;32.65;nan;63500.75;5091228;28;20218;-61
2023/06/23 04:48:46;;;;;;;15.32;9.02;;;;;;;32.51;nan;63397.19;5073338;28;20176;-61
2023/06/23 04:51:16;;;;;;;15.23;8.80;;;;;;;32.58;nan;63469.38;5091309;28;20153;-61
2023/06/23 04:53:49;;;;;;;15.20;8.63;;;;;;;32.17;nan;63441.13;5090987;28;20180;-62
2023/06/23 04:56:18;;;;;;;11.80;7.65;;;;;;;32.20;nan;63375.22;5091435;28;20157;-61
2023/06/23 04:58:48;;;;;;;13.55;8.32;;;;;;;32.16;nan;63378.53;5089275;28;20669;-61
2023/06/23 05:01:15;;;;;;;13.25;8.15;;;;;;;31.87;nan;63293.31;5091109;28;20200;-60
2023/06/23 05:03:43;;;;;;;12.57;7.95;;;;;;;31.94;nan;63298.19;5091372;28;20196;-62
2023/06/23 05:06:12;;;;;;;12.57;8.52;;;;;;;31.81;nan;63328.16;5091004;28;20233;-61
2023/06/23 05:08:39;;;;;;;11.77;8.00;;;;;;;31.68;nan;63318.41;5091007;28;20639;-62
2023/06/23 05:11:07;;;;;;;13.10;8.13;;;;;;;31.53;nan;63232.97;5090697;28;20653;-61
2023/06/23 05:13:36;;;;;;;14.18;8.32;;;;;;;31.77;nan;63297.09;5090518;28;20229;-61
2023/06/23 05:16:02;;;;;;;13.38;7.65;;;;;;;31.63;nan;63262.44;5090405;28;20185;-61
2023/06/23 05:18:29;;;;;;;11.13;7.25;;;;;;;31.46;nan;63246.63;5091162;28;20651;-61
2023/06/23 05:20:58;;;;;;;13.90;7.50;;;;;;;31.38;nan;63147.56;5090939;28;20168;-62
2023/06/23 05:23:26;;;;;;;13.55;6.93;;;;;;;31.76;nan;63319.72;5090699;28;20621;-61
2023/06/23 05:25:52;;;;;;;13.60;8.10;;;;;;;31.56;nan;63281.38;5091189;28;20184;-61
2023/06/23 05:28:19;;;;;;;10.70;7.10;;;;;;;31.86;nan;63368.28;5090961;28;20164;-61
2023/06/23 05:30:46;;;;;;;12.07;7.25;;;;;;;31.78;nan;63277.66;5090798;28;20635;-62
2023/06/23 05:33:14;;;;;;;10.35;6.93;;;;;;;31.81;nan;63368.41;5090611;28;20191;-63
2023/06/23 05:35:42;;;;;;;11.45;7.25;;;;;;;32.00;nan;63276.56;5090858;28;20212;-62
2023/06/23 05:38:09;;;;;;;11.10;7.25;;;;;;;32.38;nan;63478.63;5090915;28;20189;-61
2023/06/23 05:40:36;;;;;;;11.27;7.30;;;;;;;32.33;nan;63424.63;5093231;28;20172;-62
2023/06/23 05:43:01;;;;;;;11.45;7.43;;;;;;;32.71;nan;63483.84;5094163;28;20169;-62
2023/06/23 05:45:27;;;;;;;12.40;7.50;;;;;;;32.46;nan;63428.47;5091173;28;20618;-60
2023/06/23 05:48:09;;;;;;;11.30;7.25;;;;;;;32.40;nan;63517.41;5084185;28;20173;-61
2023/06/23 05:50:37;;;;;;;12.48;8.02;;;;;;;31.95;nan;63344.31;5084238;28;20206;-61
2023/06/23 05:53:07;;;;;;;12.90;8.10;;;;;;;31.31;nan;63392.56;5084572;28;20169;-60
2023/06/23 05:55:37;;;;;;;12.32;7.82;;;;;;;30.33;nan;62964.03;5091352;28;20208;-62
2023/06/23 05:58:07;;;;;;;12.68;7.95;;;;;;;29.91;nan;62861.00;5094107;28;20318;-59
2023/06/23 06:00:38;;;;;;;17.25;7.70;;;;;;;29.89;nan;62908.78;5094120;28;20172;-61
2023/06/23 06:03:07;;;;;;;12.88;8.20;;;;;;;29.79;nan;62872.06;5094167;28;20225;-60
2023/06/23 06:05:34;;;;;;;12.23;7.28;;;;;;;29.49;nan;63074.75;5094073;28;20161;-60
2023/06/23 06:08:01;;;;;;;14.77;8.23;;;;;;;29.33;nan;62843.00;5093683;28;20168;-63
2023/06/23 06:10:28;;;;;;;12.52;8.55;;;;;;;29.30;nan;62847.47;5094034;28;20161;-62
2023/06/23 06:12:55;;;;;;;14.65;8.50;;;;;;;28.96;nan;62878.03;5093995;28;20268;-62
2023/06/23 06:15:22;;;;;;;12.52;7.63;;;;;;;29.04;nan;62831.34;5093586;28;20203;-62
2023/06/23 06:17:49;;;;;;;14.77;8.30;;;;;;;28.91;nan;62822.28;5093605;28;20172;-61
2023/06/23 06:20:17;;;;;;;15.02;8.55;;;;;;;29.07;nan;62789.47;5093567;28;20645;-62
2023/06/23 06:22:45;;;;;;;11.93;8.15;;;;;;;28.84;nan;62882.69;5093455;28;20172;-61
2023/06/23 06:25:12;;;;;;;13.00;8.40;;;;;;;29.13;nan;62812.72;5093628;28;20208;-61
2023/06/23 06:27:41;;;;;;;11.63;7.00;;;;;;;29.19;nan;62882.22;5093433;28;20199;-61
2023/06/23 06:30:08;;;;;;;12.05;7.47;;;;;;;29.15;nan;62925.59;5093162;28;20662;-62
2023/06/23 06:32:37;;;;;;;12.00;7.65;;;;;;;28.60;nan;62944.53;5092528;28;20173;-60
2023/06/23 06:35:05;;;;;;;11.40;7.75;;;;;;;28.43;nan;62725.13;5093011;28;20748;-62
2023/06/23 06:37:37;;;;;;;14.73;8.35;;;;;;;28.24;nan;62753.31;5093519;28;20647;-61
2023/06/23 06:40:07;;;;;;;13.02;8.07;;;;;;;28.66;nan;62730.47;5091732;28;20731;-64
2023/06/23 06:42:34;;;;;;;12.45;8.35;;;;;;;28.61;nan;62706.31;5091557;28;20279;-61
2023/06/23 06:44:59;;;;;;;13.25;7.75;;;;;;;29.04;nan;62860.31;5092657;28;20579;-61
2023/06/23 06:47:28;;;;;;;14.95;8.02;;;;;;;29.20;nan;62883.38;5093104;28;20177;-61
2023/06/23 06:49:54;;;;;;;12.73;8.50;;;;;;;29.29;nan;62951.63;5092607;28;20164;-62
2023/06/23 06:52:21;;;;;;;13.30;8.10;;;;;;;29.18;nan;62812.63;4509466;28;21575;-62
2023/06/23 06:54:46;;;;;;;13.65;8.52;;;;;;;29.03;nan;62932.31;4478032;28;21083;-61
2023/06/23 06:57:12;;;;;;;15.13;8.48;;;;;;;29.16;nan;63078.88;4458865;28;20907;-61
2023/06/23 06:59:38;;;;;;;12.40;8.50;;;;;;;29.16;nan;62823.50;4450042;28;21446;-62
2023/06/23 07:02:05;;;;;;;12.25;8.07;;;;;;;29.12;nan;62934.75;4454363;28;21026;-62
2023/06/23 07:04:31;;;;;;;15.95;8.93;;;;;;;29.11;nan;62810.44;4449788;28;21143;-62
2023/06/23 07:06:56;;;;;;;12.90;8.07;;;;;;;29.17;nan;62914.16;5026774;28;20635;-62
2023/06/23 07:09:22;;;;;;;13.80;8.27;;;;;;;29.09;nan;62918.69;5092939;28;20169;-62
2023/06/23 07:11:48;;;;;;;13.57;8.77;;;;;;;29.28;nan;62992.63;5092844;28;20169;-63
2023/06/23 07:14:14;;;;;;;12.68;8.85;;;;;;;29.56;nan;62901.00;5091359;28;20236;-61
2023/06/23 07:16:40;;;;;;;16.40;8.30;;;;;;;29.49;nan;62908.78;5092712;28;20639;-62
2023/06/23 07:19:05;;;;;;;13.10;8.63;;;;;;;29.82;nan;63001.47;5092795;28;20180;-65
2023/06/23 07:21:32;;;;;;;12.52;8.07;;;;;;;29.67;nan;63068.53;5092659;28;20176;-62
2023/06/23 07:23:57;;;;;;;14.10;8.60;;;;;;;29.85;nan;63026.56;5092767;28;20218;-61
2023/06/23 07:26:23;;;;;;;14.05;8.32;;;;;;;29.70;nan;62982.97;5092388;28;20176;-62
2023/06/23 07:28:48;;;;;;;13.48;8.80;;;;;;;29.69;nan;62992.34;5092160;28;20636;-62
2023/06/23 07:31:14;;;;;;;14.75;9.30;;;;;;;29.61;nan;62935.75;5092378;28;20264;-62
2023/06/23 07:33:41;;;;;;;16.10;9.25;;;;;;;26.48;nan;64494.31;5092314;28;20180;-61
2023/06/23 07:36:06;;;;;;;12.50;8.43;;;;;;;29.75;nan;62980.22;5090112;28;20887;-63
2023/06/23 07:38:31;;;;;;;13.82;7.65;;;;;;;29.64;nan;63034.03;5090663;28;20168;-61
2023/06/23 07:40:57;;;;;;;12.32;8.18;;;;;;;29.93;nan;63029.94;5091820;28;20179;-61
2023/06/23 07:43:22;;;;;;;14.98;9.30;;;;;;;29.85;nan;63026.00;5091856;28;20165;-62
2023/06/23 07:45:48;;;;;;;14.15;8.75;;;;;;;29.67;nan;63047.47;5092175;28;20243;-62
2023/06/23 07:48:13;;;;;;;12.55;8.63;;;;;;;29.23;nan;62807.81;5092130;28;20173;-62
2023/06/23 07:50:39;;;;;;;12.88;8.07;;;;;;;29.59;nan;62949.25;5092336;28;20597;-61
2023/06/23 07:53:04;;;;;;;14.00;9.18;;;;;;;29.31;nan;62827.56;5091917;28;20176;-63
2023/06/23 07:55:29;;;;;;;12.60;8.05;;;;;;;29.56;nan;63029.53;5091495;28;20184;-61
2023/06/23 07:57:55;;;;;;;14.38;8.15;;;;;;;30.05;nan;63035.84;5091577;28;20191;-61
2023/06/23 08:00:23;;;;;;;13.90;8.75;;;;;;;30.00;nan;62995.25;5091810;28;20156;-59
2023/06/23 08:02:48;;;;;;;12.27;8.23;;;;;;;29.77;nan;63087.97;5090921;28;20311;-61
2023/06/23 08:05:14;;;;;;;17.75;8.60;;;;;;;29.88;nan;62978.78;5091717;28;20620;-62
2023/06/23 08:07:40;;;;;;;12.75;8.07;;;;;;;29.94;nan;62972.53;5092409;28;20180;-61
2023/06/23 08:10:05;;;;;;;14.02;8.95;;;;;;;29.93;nan;62995.66;5091667;28;20169;-62
2023/06/23 08:12:31;;;;;;;12.65;8.38;;;;;;;30.20;nan;63065.69;5091834;28;20187;-62
2023/06/23 08:14:56;;;;;;;14.45;8.70;;;;;;;30.11;nan;63081.72;5091603;28;20188;-62
2023/06/23 08:17:21;;;;;;;16.42;8.70;;;;;;;30.11;nan;62971.53;5091827;28;20165;-60
2023/06/23 08:19:47;;;;;;;13.90;8.50;;;;;;;30.49;nan;63182.94;5091410;28;20169;-61
2023/06/23 08:22:14;;;;;;;12.65;7.90;;;;;;;30.32;nan;63037.31;5091136;28;20691;-62
2023/06/23 08:24:39;;;;;;;12.70;8.10;;;;;;;30.54;nan;63128.00;5091597;28;20176;-60
2023/06/23 08:27:06;;;;;;;13.43;8.57;;;;;;;30.38;nan;63167.63;5091804;28;20172;-61
2023/06/23 08:29:31;;;;;;;14.55;9.15;;;;;;;30.73;nan;63207.97;5091474;28;20623;-61
2023/06/23 08:31:57;;;;;;;11.65;8.13;;;;;;;30.58;nan;63093.59;5091335;28;20180;-62
2023/06/23 08:34:22;;;;;;;13.00;8.88;;;;;;;30.76;nan;63105.25;5091638;28;20196;-62
2023/06/23 08:36:47;;;;;;;14.05;8.70;;;;;;;30.69;nan;63301.59;5091246;28;20169;-62
2023/06/23 08:39:13;;;;;;;13.18;8.60;;;;;;;30.78;nan;63126.03;5090857;28;20643;-62
2023/06/23 08:41:43;;;;;;;14.38;8.85;;;;;;;31.07;nan;63202.28;5090833;28;20188;-62
2023/06/23 08:44:13;;;;;;;14.13;8.88;;;;;;;31.21;nan;63169.69;5091422;28;20172;-62
2023/06/23 08:46:41;;;;;;;14.68;9.13;;;;;;;31.31;nan;63286.88;5091460;28;20192;-62
2023/06/23 08:49:15;;;;;;;14.68;9.15;;;;;;;30.98;nan;63196.59;5091243;28;20199;-61
2023/06/23 08:51:40;;;;;;;14.07;9.65;;;;;;;31.13;nan;63211.81;5091492;28;20225;-61
2023/06/23 08:54:06;;;;;;;15.77;9.88;;;;;;;30.63;nan;63152.16;5091032;28;20196;-60
2023/06/23 08:56:31;;;;;;;13.63;8.73;;;;;;;30.77;nan;63233.69;5091214;28;20184;-60
2023/06/23 08:58:57;;;;;;;17.20;9.63;;;;;;;30.69;nan;63145.84;5091511;28;20184;-61
2023/06/23 09:01:22;;;;;;;15.10;9.45;;;;;;;30.55;nan;63110.69;5091028;28;20221;-62
2023/06/23 09:03:48;;;;;;;13.77;9.43;;;;;;;30.64;nan;63390.84;5089793;28;20176;-62
2023/06/23 09:06:13;;;;;;;13.43;8.90;;;;;;;30.91;nan;63133.06;5091174;28;20176;-62
2023/06/23 09:08:39;;;;;;;13.90;9.18;;;;;;;30.93;nan;63241.56;5090985;28;20170;-62
2023/06/23 09:11:04;;;;;;;14.88;9.55;;;;;;;30.98;nan;63260.53;5091163;28;20169;-63
2023/06/23 09:13:35;;;;;;;13.98;9.15;;;;;;;31.21;nan;63170.28;5091987;28;20179;-61
2023/06/23 09:16:01;;;;;;;13.75;9.25;;;;;;;31.25;nan;63211.88;5094660;28;20261;-61
2023/06/23 09:18:27;;;;;;;13.52;8.93;;;;;;;30.98;nan;63127.94;5094198;28;20272;-62
2023/06/23 09:20:52;;;;;;;14.25;8.63;;;;;;;30.93;nan;63054.09;5094417;28;20181;-61
2023/06/23 09:23:23;;;;;;;13.63;8.77;;;;;;;30.29;nan;63018.00;5092931;28;20203;-62
2023/06/23 09:25:54;;;;;;;17.35;9.00;;;;;;;30.68;nan;63083.41;5094722;28;20175;-62
2023/06/23 09:28:21;;;;;;;12.00;7.80;;;;;;;30.32;nan;63090.06;5094775;28;20161;-62
2023/06/23 09:30:46;;;;;;;14.60;8.73;;;;;;;30.74;nan;63211.75;5094797;28;20184;-62
2023/06/23 09:33:12;;;;;;;11.70;7.97;;;;;;;30.79;nan;63217.53;5094192;28;20528;-63
2023/06/23 09:35:44;;;;;;;13.07;8.05;;;;;;;30.88;nan;63103.22;5094303;28;20562;-61
2023/06/23 09:38:10;;;;;;;14.38;8.25;;;;;;;30.99;nan;63177.19;5094046;28;20169;-63
2023/06/23 09:40:35;;;;;;;12.43;8.23;;;;;;;30.88;nan;63156.59;5094382;28;20200;-61
2023/06/23 09:43:01;;;;;;;12.30;7.95;;;;;;;30.73;nan;63382.19;5094544;28;20616;-62
2023/06/23 09:45:26;;;;;;;14.52;8.23;;;;;;;30.08;nan;63080.91;5094283;28;20207;-61
2023/06/23 09:47:51;;;;;;;12.85;7.80;;;;;;;30.12;nan;63009.59;5094506;28;20173;-63
2023/06/23 09:50:21;;;;;;;11.85;7.72;;;;;;;30.04;nan;62995.13;5094289;28;20172;-63
2023/06/23 09:52:46;;;;;;;14.18;8.63;;;;;;;30.34;nan;63186.75;5094464;28;20220;-64
2023/06/23 09:55:12;;;;;;;11.85;7.72;;;;;;;30.53;nan;63098.41;5094464;28;20649;-63
2023/06/23 09:57:37;;;;;;;11.43;7.85;;;;;;;30.46;nan;63058.69;5094072;28;20157;-61
2023/06/23 10:00:08;;;;;;;13.00;7.68;;;;;;;30.67;nan;63103.38;5093804;28;20251;-61
2023/06/23 10:02:33;;;;;;;11.45;7.60;;;;;;;31.03;nan;63175.94;5094170;28;20311;-61
2023/06/23 10:05:01;;;;;;;13.32;8.63;;;;;;;31.28;nan;63249.66;5093767;28;20175;-61
2023/06/23 10:07:27;;;;;;;10.93;7.40;;;;;;;31.40;nan;63263.47;5094234;28;20209;-62
2023/06/23 10:09:58;;;;;;;11.95;7.45;;;;;;;31.31;nan;63319.16;5092674;28;20214;-61
2023/06/23 10:12:26;;;;;;;11.63;7.70;;;;;;;31.49;nan;63275.94;5093621;28;20165;-62
2023/06/23 10:14:55;;;;;;;12.40;7.38;;;;;;;31.34;nan;63378.13;5094057;28;20228;-61
2023/06/23 10:17:21;;;;;;;13.80;8.05;;;;;;;31.46;nan;63298.91;5093301;28;20164;-62
2023/06/23 10:19:48;;;;;;;12.02;7.32;;;;;;;31.46;nan;63241.34;5093631;28;20226;-62
2023/06/23 10:22:16;;;;;;;10.85;7.15;;;;;;;31.09;nan;63304.34;5093809;28;20168;-62
2023/06/23 10:24:47;;;;;;;11.98;7.50;;;;;;;30.74;nan;63174.22;5092945;28;20165;-61
2023/06/23 10:27:23;;;;;;;12.25;7.28;;;;;;;30.71;nan;63213.56;5093653;28;20157;-61
2023/06/23 10:29:55;;;;;;;11.48;7.53;;;;;;;30.93;nan;63124.81;5092035;28;20204;-63
2023/06/23 10:32:23;;;;;;;10.93;7.20;;;;;;;29.05;nan;62966.19;5093765;28;20214;-62
2023/06/23 10:34:51;;;;;;;11.20;7.18;;;;;;;31.37;nan;63334.03;5093619;28;20195;-61
2023/06/23 10:37:20;;;;;;;10.02;6.68;;;;;;;31.70;nan;63252.56;5093205;28;20534;-61
2023/06/23 10:39:50;;;;;;;12.27;6.40;;;;;;;31.74;nan;63330.63;5093361;28;20627;-62
2023/06/23 10:42:16;;;;;;;9.73;6.55;;;;;;;32.09;nan;63352.50;5092873;28;20590;-62
2023/06/23 10:44:43;;;;;;;10.15;6.72;;;;;;;32.07;nan;63357.56;5093392;28;20165;-62
2023/06/23 10:47:08;;;;;;;10.13;6.22;;;;;;;32.15;nan;63449.41;5093210;28;20173;-61
2023/06/23 10:49:38;;;;;;;9.77;6.60;;;;;;;32.31;nan;63488.50;5092055;28;20620;-61
2023/06/23 10:52:04;;;;;;;9.88;6.80;;;;;;;32.17;nan;63607.84;5093504;28;20536;-61
2023/06/23 10:54:32;;;;;;;9.27;6.57;;;;;;;32.05;nan;63360.56;5092996;28;20200;-63
2023/06/23 10:56:58;;;;;;;9.93;6.47;;;;;;;32.26;nan;63388.03;5092435;28;20180;-61
2023/06/23 10:59:27;;;;;;;9.23;6.43;;;;;;;32.41;nan;63445.03;5092679;28;20553;-62
2023/06/23 11:02:12;;;;;;;10.13;6.50;;;;;;;32.37;nan;63419.22;5092680;28;20220;-62
2023/06/23 11:04:49;;;;;;;11.80;6.72;;;;;;;32.31;nan;63438.22;5085564;28;20188;-62
2023/06/23 11:07:14;;;;;;;8.98;6.22;;;;;;;32.09;nan;63611.78;5092903;28;20572;-62
2023/06/23 11:09:58;;;;;;;11.40;6.43;;;;;;;32.27;nan;63383.88;5092805;28;20286;-62
2023/06/23 11:12:38;;;;;;;8.93;6.13;;;;;;;32.46;nan;63412.59;5092367;28;20157;-61
2023/06/23 11:15:15;;;;;;;9.05;6.47;;;;;;;32.72;nan;63469.13;5091749;28;20200;-61
2023/06/23 11:17:44;;;;;;;11.27;6.18;;;;;;;32.50;nan;63523.69;5092605;28;20181;-61
2023/06/23 11:20:12;;;;;;;11.50;6.70;;;;;;;32.31;nan;63342.94;5092698;28;20678;-62
2023/06/23 11:22:40;;;;;;;7.93;6.05;;;;;;;31.76;nan;63248.34;5092252;28;20192;-62
2023/06/23 11:25:06;;;;;;;9.75;6.55;;;;;;;31.99;nan;63375.38;5092879;28;20180;-62
2023/06/23 11:27:31;;;;;;;8.40;6.13;;;;;;;32.18;nan;63339.09;5092443;28;20176;-61
2023/06/23 11:30:26;;;;;;;8.65;5.95;;;;;;;32.50;nan;63459.56;5091119;28;20621;-62
2023/06/23 11:33:32;;;;;;;10.00;6.30;;;;;;;32.30;nan;63458.81;5082466;28;20195;-63
2023/06/23 11:36:03;;;;;;;8.57;5.72;;;;;;;31.74;nan;63322.72;5091556;28;20721;-62
2023/06/23 11:38:28;;;;;;;10.15;6.63;;;;;;;31.94;nan;63335.22;5092161;28;20667;-62
2023/06/23 11:40:56;;;;;;;11.68;6.60;;;;;;;31.84;nan;63453.25;5092220;28;20172;-63
2023/06/23 11:43:22;;;;;;;10.65;6.93;;;;;;;32.23;nan;63400.41;5092232;28;20321;-61
2023/06/23 11:45:54;;;;;;;10.52;6.53;;;;;;;31.98;nan;63360.97;5092071;28;20168;-61